Time;durP1;ratioP1;P1;durP2;ratioP2;P2;SDS_P1;SDS_P2;PMS_P1;PMS_P2;Temp;Humidity;BMP_temperature;BMP_pressure;BME280_temperature;BME280_humidity;BME280_pressure;Samples;Min_cycle;Max_cycle;Signal;HPM_P1;HPM_P2
2023/01/02 00:00:19;;;;;;;17.05;3.08;;;;;;;;;;5152094;27;20075;-75
2023/01/02 00:02:44;;;;;;;17.27;3.28;;;;;;;;;;5152233;27;20030;-73
2023/01/02 00:05:10;;;;;;;21.20;3.97;;;;;;;;;;5152065;27;20759;-74
2023/01/02 00:07:36;;;;;;;18.15;3.55;;;;;;;;;;5152046;27;20038;-75
2023/01/02 00:10:02;;;;;;;15.30;3.63;;;;;;;;;;5151873;27;20172;-73
2023/01/02 00:12:27;;;;;;;16.80;3.50;;;;;;;;;;5152056;27;20030;-74
2023/01/02 00:14:53;;;;;;;13.55;3.17;;;;;;;;;;5152258;27;20492;-74
2023/01/02 00:17:19;;;;;;;19.35;3.25;;;;;;;;;;5152153;27;20524;-76
2023/01/02 00:19:44;;;;;;;15.95;3.28;;;;;;;;;;5151860;27;20031;-75
2023/01/02 00:22:10;;;;;;;13.90;3.33;;;;;;;;;;5152177;27;20109;-74
2023/01/02 00:24:35;;;;;;;14.70;3.13;;;;;;;;;;5151832;27;20625;-75
2023/01/02 00:27:00;;;;;;;16.65;3.67;;;;;;;;;;5152907;27;20106;-72
2023/01/02 00:29:26;;;;;;;16.40;3.25;;;;;;;;;;5155905;27;20022;-75
2023/01/02 00:31:51;;;;;;;14.95;3.10;;;;;;;;;;5156292;27;20107;-74
2023/01/02 00:34:17;;;;;;;17.90;3.45;;;;;;;;;;5156046;27;20027;-73
2023/01/02 00:36:42;;;;;;;11.57;3.25;;;;;;;;;;5156226;27;20502;-73
2023/01/02 00:39:08;;;;;;;15.43;3.13;;;;;;;;;;5155801;27;20023;-74
2023/01/02 00:41:33;;;;;;;18.38;3.70;;;;;;;;;;5156016;27;20019;-71
2023/01/02 00:43:58;;;;;;;16.95;3.45;;;;;;;;;;5155763;27;20529;-73
2023/01/02 00:46:24;;;;;;;18.35;3.30;;;;;;;;;;5155741;27;20075;-73
2023/01/02 00:48:49;;;;;;;13.98;3.05;;;;;;;;;;5155415;27;20516;-75
2023/01/02 00:51:14;;;;;;;15.45;3.03;;;;;;;;;;5154347;27;20033;-72
2023/01/02 00:53:40;;;;;;;16.95;3.20;;;;;;;;;;5155614;27;20385;-75
2023/01/02 00:56:06;;;;;;;15.70;3.22;;;;;;;;;;5155859;27;20027;-72
2023/01/02 00:58:31;;;;;;;14.10;3.10;;;;;;;;;;5155620;27;20022;-75
2023/01/02 01:00:56;;;;;;;15.18;3.38;;;;;;;;;;5155617;27;20028;-73
2023/01/02 01:03:22;;;;;;;15.35;3.05;;;;;;;;;;5155281;27;20034;-74
2023/01/02 01:05:47;;;;;;;15.73;3.40;;;;;;;;;;5155299;27;20027;-73
2023/01/02 01:08:12;;;;;;;14.70;3.05;;;;;;;;;;5155472;27;20113;-73
2023/01/02 01:10:38;;;;;;;17.60;3.30;;;;;;;;;;5155091;27;20484;-74
2023/01/02 01:13:04;;;;;;;16.95;3.30;;;;;;;;;;5155487;27;20023;-73
2023/01/02 01:15:29;;;;;;;14.52;3.90;;;;;;;;;;5155489;27;20022;-73
2023/01/02 01:17:55;;;;;;;13.48;3.00;;;;;;;;;;5155351;27;20045;-74
2023/01/02 01:20:21;;;;;;;13.23;3.13;;;;;;;;;;5155004;27;20023;-76
2023/01/02 01:22:46;;;;;;;15.73;3.33;;;;;;;;;;5155089;27;20033;-75
2023/01/02 01:25:12;;;;;;;17.60;3.35;;;;;;;;;;5154992;27;20038;-74
2023/01/02 01:27:37;;;;;;;11.73;3.03;;;;;;;;;;5155076;27;20102;-72
2023/01/02 01:30:04;;;;;;;17.05;3.42;;;;;;;;;;5154810;27;20062;-75
2023/01/02 01:32:30;;;;;;;15.82;3.30;;;;;;;;;;5154896;27;20463;-74
2023/01/02 01:34:55;;;;;;;17.05;3.20;;;;;;;;;;5153719;27;20109;-75
2023/01/02 01:37:21;;;;;;;12.63;2.88;;;;;;;;;;5154918;27;20023;-74
2023/01/02 01:39:46;;;;;;;15.15;3.30;;;;;;;;;;5154480;27;20030;-74
2023/01/02 01:42:12;;;;;;;16.05;3.50;;;;;;;;;;5154815;27;20019;-74
2023/01/02 01:44:50;;;;;;;24.45;3.72;;;;;;;;;;5154338;27;20042;-74
2023/01/02 01:47:33;;;;;;;20.05;3.10;;;;;;;;;;5154589;27;20512;-76
2023/01/02 01:50:14;;;;;;;11.32;3.25;;;;;;;;;;5152927;27;20058;-74
2023/01/02 01:52:48;;;;;;;15.48;3.10;;;;;;;;;;5154614;27;20848;-73
2023/01/02 01:55:27;;;;;;;16.52;3.03;;;;;;;;;;5154602;27;20030;-76
2023/01/02 01:58:11;;;;;;;15.35;3.42;;;;;;;;;;5154681;27;20477;-74
2023/01/02 02:00:39;;;;;;;16.40;3.30;;;;;;;;;;5154160;27;20075;-75
2023/01/02 02:03:14;;;;;;;17.83;3.03;;;;;;;;;;5154202;27;20018;-73
2023/01/02 02:05:41;;;;;;;17.35;3.05;;;;;;;;;;5154070;27;20027;-73
2023/01/02 02:08:24;;;;;;;19.65;2.92;;;;;;;;;;5154149;27;20031;-73
2023/01/02 02:10:51;;;;;;;15.20;3.20;;;;;;;;;;5153850;27;20595;-73
2023/01/02 02:13:17;;;;;;;17.95;3.15;;;;;;;;;;5154212;27;20027;-74
2023/01/02 02:16:07;;;;;;;14.23;3.42;;;;;;;;;;5154208;27;20030;-74
2023/01/02 02:18:44;;;;;;;15.83;3.20;;;;;;;;;;5154066;27;20106;-74
2023/01/02 02:21:24;;;;;;;16.80;2.92;;;;;;;;;;5152228;27;20485;-73
2023/01/02 02:24:08;;;;;;;12.25;3.13;;;;;;;;;;5153995;27;20033;-74
2023/01/02 02:26:55;;;;;;;17.42;2.97;;;;;;;;;;5153772;27;20095;-73
2023/01/02 02:29:46;;;;;;;14.52;3.00;;;;;;;;;;5153501;27;20026;-74
2023/01/02 02:32:15;;;;;;;11.68;2.70;;;;;;;;;;5123743;27;20501;-74
2023/01/02 02:35:03;;;;;;;15.00;3.50;;;;;;;;;;5153579;27;20099;-73
2023/01/02 02:37:37;;;;;;;18.02;3.67;;;;;;;;;;5153896;27;20413;-75
2023/01/02 02:40:08;;;;;;;14.20;3.10;;;;;;;;;;5153181;27;20029;-76
2023/01/02 02:42:47;;;;;;;15.60;2.90;;;;;;;;;;5153558;27;20657;-76
2023/01/02 02:45:36;;;;;;;11.80;3.08;;;;;;;;;;5153312;27;20122;-76
2023/01/02 02:48:27;;;;;;;17.60;3.30;;;;;;;;;;5153251;27;20034;-75
2023/01/02 02:51:06;;;;;;;16.70;2.95;;;;;;;;;;5152692;27;20059;-73
2023/01/02 02:53:46;;;;;;;21.40;3.33;;;;;;;;;;5153524;27;20026;-75
2023/01/02 02:56:13;;;;;;;10.30;2.80;;;;;;;;;;5153410;27;20022;-76
2023/01/02 02:58:40;;;;;;;13.38;3.47;;;;;;;;;;5153323;27;20086;-74
2023/01/02 03:01:15;;;;;;;14.95;3.33;;;;;;;;;;5153042;27;20516;-70
2023/01/02 03:03:41;;;;;;;15.65;3.13;;;;;;;;;;5152868;27;20041;-69
2023/01/02 03:06:09;;;;;;;11.75;2.67;;;;;;;;;;5153122;27;20110;-68
2023/01/02 03:08:46;;;;;;;14.13;3.08;;;;;;;;;;5152893;27;20019;-68
2023/01/02 03:11:12;;;;;;;14.00;3.10;;;;;;;;;;5152718;27;20629;-68
2023/01/02 03:14:01;;;;;;;16.67;3.30;;;;;;;;;;5153079;27;20079;-67
2023/01/02 03:16:38;;;;;;;14.75;2.92;;;;;;;;;;5152959;27;20057;-70
2023/01/02 03:19:32;;;;;;;14.30;2.95;;;;;;;;;;5152911;27;20018;-67
2023/01/02 03:22:05;;;;;;;10.10;2.63;;;;;;;;;;5137967;27;20038;-69
2023/01/02 03:24:32;;;;;;;11.45;2.70;;;;;;;;;;5152729;27;20026;-69
2023/01/02 03:27:05;;;;;;;13.95;3.20;;;;;;;;;;5152663;27;20110;-68
2023/01/02 03:29:39;;;;;;;11.48;3.00;;;;;;;;;;5152491;27;20030;-69
2023/01/02 03:32:11;;;;;;;10.85;3.05;;;;;;;;;;5152367;27;20566;-69
2023/01/02 03:34:40;;;;;;;10.35;2.85;;;;;;;;;;5152585;27;20470;-68
2023/01/02 03:37:10;;;;;;;16.08;3.10;;;;;;;;;;5152790;27;20542;-68
2023/01/02 03:39:42;;;;;;;17.67;3.20;;;;;;;;;;5152294;27;20538;-67
2023/01/02 03:42:20;;;;;;;15.40;3.20;;;;;;;;;;5152407;27;20029;-68
2023/01/02 03:44:58;;;;;;;18.35;3.45;;;;;;;;;;5152106;27;20122;-68
2023/01/02 03:47:40;;;;;;;10.43;2.85;;;;;;;;;;5152297;27;20422;-67
2023/01/02 03:50:21;;;;;;;16.33;3.47;;;;;;;;;;5152082;27;20098;-68
2023/01/02 03:52:46;;;;;;;17.38;3.55;;;;;;;;;;5152490;27;20114;-68
2023/01/02 03:55:12;;;;;;;14.52;3.25;;;;;;;;;;5152500;27;20102;-68
2023/01/02 03:57:58;;;;;;;10.32;3.30;;;;;;;;;;5152734;27;20122;-68
2023/01/02 04:00:33;;;;;;;13.80;3.42;;;;;;;;;;5152234;27;20511;-68
2023/01/02 04:03:06;;;;;;;18.33;3.20;;;;;;;;;;5151485;27;20042;-68
2023/01/02 04:05:41;;;;;;;14.10;3.38;;;;;;;;;;5152232;27;20486;-68
2023/01/02 04:08:21;;;;;;;10.75;3.08;;;;;;;;;;5152000;27;20401;-68
2023/01/02 04:10:50;;;;;;;13.32;2.78;;;;;;;;;;5151883;27;20030;-68
2023/01/02 04:13:24;;;;;;;14.50;3.30;;;;;;;;;;5152119;27;20041;-68
2023/01/02 04:15:51;;;;;;;14.30;2.95;;;;;;;;;;5152126;27;20102;-69
2023/01/02 04:18:26;;;;;;;17.23;3.28;;;;;;;;;;5152092;27;20470;-68
2023/01/02 04:20:55;;;;;;;13.50;3.13;;;;;;;;;;5151765;27;20033;-69
2023/01/02 04:23:35;;;;;;;16.27;3.38;;;;;;;;;;5151979;27;20114;-68
2023/01/02 04:26:08;;;;;;;;;;;;;;;;;;5152202;27;20105;-67
2023/01/02 04:28:34;;;;;;;11.88;3.10;;;;;;;;;;5151726;27;19918;-69
2023/01/02 04:31:06;;;;;;;13.07;3.20;;;;;;;;;;5151721;27;20022;-69
2023/01/02 04:33:36;;;;;;;17.65;3.53;;;;;;;;;;5151975;27;20015;-70
2023/01/02 04:36:13;;;;;;;13.68;3.22;;;;;;;;;;5152151;27;20042;-73
2023/01/02 04:38:40;;;;;;;16.42;3.30;;;;;;;;;;5151905;27;20031;-73
2023/01/02 04:41:05;;;;;;;16.65;3.20;;;;;;;;;;5151436;27;20090;-73
2023/01/02 04:43:31;;;;;;;13.90;3.10;;;;;;;;;;5151526;27;20494;-73
2023/01/02 04:45:57;;;;;;;15.50;3.03;;;;;;;;;;5151826;27;20022;-77
2023/01/02 04:48:22;;;;;;;12.40;3.30;;;;;;;;;;5151538;27;20027;-75
2023/01/02 04:50:47;;;;;;;17.20;3.13;;;;;;;;;;5151532;27;20060;-75
2023/01/02 04:53:13;;;;;;;19.15;3.38;;;;;;;;;;5151762;27;20374;-73
2023/01/02 04:55:39;;;;;;;11.60;3.40;;;;;;;;;;5151614;27;20082;-75
2023/01/02 04:58:05;;;;;;;12.75;3.38;;;;;;;;;;5151749;27;20030;-74
2023/01/02 05:00:31;;;;;;;15.52;3.63;;;;;;;;;;5151402;27;20075;-74
2023/01/02 05:02:56;;;;;;;16.98;3.40;;;;;;;;;;5151602;27;20054;-74
2023/01/02 05:05:22;;;;;;;12.68;3.60;;;;;;;;;;5151244;27;20023;-75
2023/01/02 05:07:47;;;;;;;12.93;3.22;;;;;;;;;;5151322;27;20042;-75
2023/01/02 05:10:12;;;;;;;17.15;3.65;;;;;;;;;;5151317;27;20022;-76
2023/01/02 05:12:38;;;;;;;13.32;3.00;;;;;;;;;;5151887;27;20034;-74
2023/01/02 05:15:05;;;;;;;15.90;3.67;;;;;;;;;;5155307;27;20015;-75
2023/01/02 05:17:38;;;;;;;18.08;3.53;;;;;;;;;;5155372;27;20092;-73
2023/01/02 05:20:05;;;;;;;14.98;3.88;;;;;;;;;;5155317;27;20373;-75
2023/01/02 05:25:15;;;;;;;14.15;3.50;;;;;;;;;;5155286;27;20045;-73
2023/01/02 05:27:40;;;;;;;17.10;3.42;;;;;;;;;;5154973;27;20023;-75
2023/01/02 05:30:07;;;;;;;14.63;3.15;;;;;;;;;;5154951;27;20050;-73
2023/01/02 05:32:32;;;;;;;19.73;3.65;;;;;;;;;;5154811;27;20125;-74
2023/01/02 05:34:57;;;;;;;16.67;3.92;;;;;;;;;;5154929;27;20102;-75
2023/01/02 05:37:23;;;;;;;10.77;3.17;;;;;;;;;;5155053;27;20018;-75
2023/01/02 05:39:48;;;;;;;11.02;3.17;;;;;;;;;;5154627;27;20441;-69
2023/01/02 05:42:14;;;;;;;12.07;3.20;;;;;;;;;;5154635;27;20050;-68
2023/01/02 05:44:39;;;;;;;15.85;3.75;;;;;;;;;;5154327;27;20513;-68
2023/01/02 05:47:04;;;;;;;17.55;3.58;;;;;;;;;;5154667;27;20019;-69
2023/01/02 05:49:30;;;;;;;13.18;3.33;;;;;;;;;;5154496;27;20022;-68
2023/01/02 05:51:55;;;;;;;18.40;3.70;;;;;;;;;;5154205;27;20058;-70
2023/01/02 05:54:20;;;;;;;17.15;3.65;;;;;;;;;;5154559;27;20016;-68
2023/01/02 05:56:46;;;;;;;16.23;3.55;;;;;;;;;;5154597;27;20022;-68
2023/01/02 05:59:14;;;;;;;15.02;3.25;;;;;;;;;;5154668;27;20030;-68
2023/01/02 06:01:40;;;;;;;16.60;3.60;;;;;;;;;;5154110;27;20401;-67
2023/01/02 06:04:05;;;;;;;12.18;3.88;;;;;;;;;;5154184;27;20023;-70
2023/01/02 06:06:37;;;;;;;16.25;3.80;;;;;;;;;;5154273;27;20019;-68
2023/01/02 06:09:03;;;;;;;12.10;3.30;;;;;;;;;;5154334;27;20025;-68
2023/01/02 06:11:29;;;;;;;14.68;3.55;;;;;;;;;;5152549;27;20396;-68
2023/01/02 06:13:55;;;;;;;17.42;3.38;;;;;;;;;;5154469;27;20058;-68
2023/01/02 06:16:21;;;;;;;17.30;3.83;;;;;;;;;;5154170;27;20467;-67
2023/01/02 06:18:47;;;;;;;17.15;3.60;;;;;;;;;;5153951;27;20018;-68
2023/01/02 06:21:15;;;;;;;22.08;4.03;;;;;;;;;;5153859;27;20106;-69
2023/01/02 06:23:41;;;;;;;17.83;3.95;;;;;;;;;;5153991;27;20030;-68
2023/01/02 06:26:17;;;;;;;15.45;3.70;;;;;;;;;;5153012;27;20030;-68
2023/01/02 06:28:44;;;;;;;18.55;3.60;;;;;;;;;;5153844;27;20482;-68
2023/01/02 06:31:16;;;;;;;18.90;3.90;;;;;;;;;;5153521;27;20546;-68
2023/01/02 06:33:42;;;;;;;13.35;3.55;;;;;;;;;;5153600;27;20064;-68
2023/01/02 06:36:12;;;;;;;22.77;3.80;;;;;;;;;;5154006;27;20063;-68
2023/01/02 06:38:38;;;;;;;16.98;3.92;;;;;;;;;;5154212;27;20440;-69
2023/01/02 06:41:05;;;;;;;14.48;3.53;;;;;;;;;;5154432;27;20486;-69
2023/01/02 06:43:32;;;;;;;13.57;3.80;;;;;;;;;;5153575;27;20038;-70
2023/01/02 06:45:59;;;;;;;16.50;4.07;;;;;;;;;;5153649;27;20026;-68
2023/01/02 06:48:24;;;;;;;15.40;3.95;;;;;;;;;;5153214;27;20030;-70
2023/01/02 06:50:50;;;;;;;26.02;4.65;;;;;;;;;;5153221;27;20076;-68
2023/01/02 06:53:15;;;;;;;15.63;4.07;;;;;;;;;;5153569;27;20023;-68
2023/01/02 06:55:56;;;;;;;15.75;4.00;;;;;;;;;;5153331;27;20406;-68
2023/01/02 06:58:22;;;;;;;17.92;4.10;;;;;;;;;;5153479;27;20058;-69
2023/01/02 07:00:48;;;;;;;14.75;4.05;;;;;;;;;;5153096;27;20502;-68
2023/01/02 07:03:14;;;;;;;19.00;3.63;;;;;;;;;;5153284;27;20062;-70
2023/01/02 07:05:40;;;;;;;16.55;3.80;;;;;;;;;;5153163;27;20036;-69
2023/01/02 07:08:06;;;;;;;19.60;3.80;;;;;;;;;;5153034;27;20382;-69
2023/01/02 07:10:31;;;;;;;15.85;4.20;;;;;;;;;;5152959;27;20022;-68
2023/01/02 07:12:57;;;;;;;12.43;3.53;;;;;;;;;;5153188;27;20607;-68
2023/01/02 07:15:22;;;;;;;19.98;3.95;;;;;;;;;;5151813;27;20483;-69
2023/01/02 07:17:47;;;;;;;14.52;3.75;;;;;;;;;;5152915;27;20478;-68
2023/01/02 07:20:13;;;;;;;13.52;3.78;;;;;;;;;;5152732;27;20029;-68
2023/01/02 07:22:38;;;;;;;14.40;4.10;;;;;;;;;;5152504;27;20027;-68
2023/01/02 07:25:04;;;;;;;20.00;4.72;;;;;;;;;;5152529;27;20572;-69
2023/01/02 07:27:30;;;;;;;15.95;4.43;;;;;;;;;;5152635;27;20054;-68
2023/01/02 07:29:56;;;;;;;15.95;4.30;;;;;;;;;;5151397;27;20026;-69
2023/01/02 07:32:22;;;;;;;13.85;4.30;;;;;;;;;;5152317;27;20072;-68
2023/01/02 07:34:47;;;;;;;17.15;4.30;;;;;;;;;;5151255;27;20034;-74
2023/01/02 07:37:12;;;;;;;16.92;4.35;;;;;;;;;;5152560;27;20010;-73
2023/01/02 07:39:38;;;;;;;14.05;4.72;;;;;;;;;;5152589;27;20363;-72
2023/01/02 07:42:03;;;;;;;20.38;4.47;;;;;;;;;;5152036;27;20019;-72
2023/01/02 07:44:29;;;;;;;13.93;4.45;;;;;;;;;;5152099;27;20630;-74
2023/01/02 07:46:54;;;;;;;17.77;3.72;;;;;;;;;;5152457;27;20047;-72
2023/01/02 07:49:20;;;;;;;20.70;4.30;;;;;;;;;;5152246;27;20626;-75
2023/01/02 07:51:45;;;;;;;12.52;4.13;;;;;;;;;;5150963;27;20030;-72
2023/01/02 07:54:10;;;;;;;18.35;4.70;;;;;;;;;;5152370;27;20497;-74
2023/01/02 07:56:36;;;;;;;20.25;4.85;;;;;;;;;;5152102;27;20069;-74
2023/01/02 07:59:01;;;;;;;14.30;4.05;;;;;;;;;;5152187;27;20027;-74
2023/01/02 08:01:27;;;;;;;19.13;4.60;;;;;;;;;;5152031;27;20026;-75
2023/01/02 08:03:52;;;;;;;16.23;4.43;;;;;;;;;;5151968;27;20438;-76
2023/01/02 08:06:18;;;;;;;13.73;4.22;;;;;;;;;;5152110;27;20015;-75
2023/01/02 08:08:44;;;;;;;22.02;5.10;;;;;;;;;;5152106;27;20544;-72
2023/01/02 08:11:15;;;;;;;15.30;4.65;;;;;;;;;;5151958;27;20083;-74
2023/01/02 08:13:40;;;;;;;17.83;4.80;;;;;;;;;;5152045;27;20022;-73
2023/01/02 08:16:11;;;;;;;14.80;4.82;;;;;;;;;;5152172;27;20057;-76
2023/01/02 08:18:37;;;;;;;19.98;6.43;;;;;;;;;;5151942;27;20026;-73
2023/01/02 08:21:03;;;;;;;19.58;6.22;;;;;;;;;;5151908;27;20023;-72
2023/01/02 08:23:29;;;;;;;16.20;5.38;;;;;;;;;;5151678;27;20033;-70
2023/01/02 08:26:01;;;;;;;20.65;5.30;;;;;;;;;;5151878;27;20019;-71
2023/01/02 08:28:28;;;;;;;16.08;4.95;;;;;;;;;;5152031;27;20019;-73
2023/01/02 08:30:54;;;;;;;18.85;4.55;;;;;;;;;;5151910;27;20033;-72
2023/01/02 08:33:19;;;;;;;14.52;4.10;;;;;;;;;;5151423;27;20018;-72
2023/01/02 08:35:44;;;;;;;17.20;4.65;;;;;;;;;;5150620;27;20060;-73
2023/01/02 08:38:10;;;;;;;15.15;4.90;;;;;;;;;;5152095;27;20494;-76
2023/01/02 08:40:35;;;;;;;17.33;4.38;;;;;;;;;;5150324;27;20565;-75
2023/01/02 08:43:01;;;;;;;12.23;4.32;;;;;;;;;;5151409;27;20566;-74
2023/01/02 08:45:26;;;;;;;18.15;4.63;;;;;;;;;;5151666;27;20033;-74
2023/01/02 08:47:52;;;;;;;18.20;4.80;;;;;;;;;;5152456;27;20105;-70
2023/01/02 08:50:17;;;;;;;15.00;4.95;;;;;;;;;;5155680;27;20083;-74
2023/01/02 08:52:43;;;;;;;15.85;4.63;;;;;;;;;;5155479;27;20037;-73
2023/01/02 08:55:09;;;;;;;16.40;4.90;;;;;;;;;;5155854;27;20109;-72
2023/01/02 08:57:34;;;;;;;12.70;3.88;;;;;;;;;;5154302;27;20070;-70
2023/01/02 09:00:00;;;;;;;17.27;5.10;;;;;;;;;;5155620;27;20466;-74
2023/01/02 09:02:25;;;;;;;17.55;4.97;;;;;;;;;;5155357;27;20374;-72
2023/01/02 09:04:50;;;;;;;15.43;4.82;;;;;;;;;;5155310;27;20058;-73
2023/01/02 09:07:16;;;;;;;13.55;4.20;;;;;;;;;;5155431;27;20026;-73
2023/01/02 09:09:41;;;;;;;17.58;4.30;;;;;;;;;;5155526;27;20023;-75
2023/01/02 09:12:07;;;;;;;13.38;4.20;;;;;;;;;;5155215;27;20030;-71
2023/01/02 09:14:32;;;;;;;11.60;3.42;;;;;;;;;;5155539;27;20051;-73
2023/01/02 09:16:58;;;;;;;14.52;3.60;;;;;;;;;;5155562;27;20033;-73
2023/01/02 09:19:24;;;;;;;16.38;4.00;;;;;;;;;;5155341;27;20110;-73
2023/01/02 09:21:50;;;;;;;15.70;4.43;;;;;;;;;;5154832;27;20546;-72
2023/01/02 09:24:16;;;;;;;11.77;3.78;;;;;;;;;;5155029;27;20026;-74
2023/01/02 09:26:41;;;;;;;14.93;3.95;;;;;;;;;;5155214;27;20027;-72
2023/01/02 09:29:07;;;;;;;14.77;4.07;;;;;;;;;;5155189;27;20021;-72
2023/01/02 09:31:33;;;;;;;14.77;4.32;;;;;;;;;;5154957;27;20058;-72
2023/01/02 09:33:58;;;;;;;17.33;4.18;;;;;;;;;;5154976;27;20062;-73
2023/01/02 09:36:24;;;;;;;21.17;4.28;;;;;;;;;;5154915;27;20023;-74
2023/01/02 09:38:54;;;;;;;12.75;4.13;;;;;;;;;;5154868;27;20102;-74
2023/01/02 09:41:31;;;;;;;12.43;3.92;;;;;;;;;;5154704;27;20147;-74
2023/01/02 09:44:15;;;;;;;16.42;4.50;;;;;;;;;;5154379;27;20069;-76
2023/01/02 09:46:55;;;;;;;17.75;3.65;;;;;;;;;;5154625;27;20031;-75
2023/01/02 09:49:24;;;;;;;19.27;3.80;;;;;;;;;;5154615;27;20684;-76
2023/01/02 09:51:50;;;;;;;17.92;3.28;;;;;;;;;;5154291;27;20060;-76
2023/01/02 09:54:27;;;;;;;14.65;3.28;;;;;;;;;;5154431;27;20026;-74
2023/01/02 09:57:08;;;;;;;11.57;3.60;;;;;;;;;;5154409;27;20530;-74
2023/01/02 09:59:43;;;;;;;14.10;3.30;;;;;;;;;;5153046;27;20087;-76
2023/01/02 10:02:29;;;;;;;19.48;3.35;;;;;;;;;;5154139;27;20019;-72
2023/01/02 10:05:07;;;;;;;11.13;2.65;;;;;;;;;;5153684;27;20123;-74
2023/01/02 10:07:47;;;;;;;13.27;2.83;;;;;;;;;;5154190;27;20018;-74
2023/01/02 10:10:21;;;;;;;10.35;2.60;;;;;;;;;;5154300;27;20046;-77
2023/01/02 10:13:23;;;;;;;10.60;3.25;;;;;;;;;;5154087;27;20490;-74
2023/01/02 10:15:52;;;;;;;11.15;2.90;;;;;;;;;;5154281;27;20432;-74
2023/01/02 10:18:27;;;;;;;15.13;3.10;;;;;;;;;;5153895;27;20027;-75
2023/01/02 10:21:17;;;;;;;8.15;2.92;;;;;;;;;;5153755;27;20027;-73
2023/01/02 10:24:01;;;;;;;11.82;2.95;;;;;;;;;;5153610;27;20038;-74
2023/01/02 10:26:40;;;;;;;9.82;3.03;;;;;;;;;;5153671;27;20027;-69
2023/01/02 10:29:27;;;;;;;11.57;2.83;;;;;;;;;;5153945;27;20098;-74
2023/01/02 10:32:15;;;;;;;10.60;2.92;;;;;;;;;;5152446;27;20034;-73
2023/01/02 10:34:46;;;;;;;10.95;3.20;;;;;;;;;;5153575;27;20033;-72
2023/01/02 10:37:14;;;;;;;12.45;3.10;;;;;;;;;;5153914;27;20386;-68
2023/01/02 10:39:45;;;;;;;13.85;2.90;;;;;;;;;;5153665;27;20046;-70
2023/01/02 10:42:13;;;;;;;7.78;2.47;;;;;;;;;;5153287;27;20019;-68
2023/01/02 10:44:40;;;;;;;8.82;2.67;;;;;;;;;;5153264;27;20050;-68
2023/01/02 10:47:19;;;;;;;9.95;3.00;;;;;;;;;;5153464;27;20031;-68
2023/01/02 10:49:46;;;;;;;10.45;2.78;;;;;;;;;;5153388;27;20094;-68
2023/01/02 10:52:17;;;;;;;11.07;2.75;;;;;;;;;;5153280;27;20031;-69
2023/01/02 10:54:53;;;;;;;9.35;2.78;;;;;;;;;;5153347;27;20015;-68
2023/01/02 10:57:33;;;;;;;8.85;2.60;;;;;;;;;;5153312;27;20023;-69
2023/01/02 11:00:00;;;;;;;11.25;2.63;;;;;;;;;;5153143;27;20054;-74
2023/01/02 11:02:39;;;;;;;9.32;3.10;;;;;;;;;;5151951;27;20393;-74
2023/01/02 11:05:15;;;;;;;7.82;2.90;;;;;;;;;;5152954;27;20075;-76
2023/01/02 11:07:47;;;;;;;9.25;2.17;;;;;;;;;;5153144;27;20033;-75
2023/01/02 11:10:32;;;;;;;11.82;2.50;;;;;;;;;;5152836;27;20509;-74
2023/01/02 11:13:14;;;;;;;9.30;2.65;;;;;;;;;;5153017;27;20065;-76
2023/01/02 11:16:01;;;;;;;9.82;2.90;;;;;;;;;;5153209;27;20027;-74
2023/01/02 11:18:34;;;;;;;9.55;2.70;;;;;;;;;;5152782;27;20019;-75
2023/01/02 11:21:03;;;;;;;10.85;2.78;;;;;;;;;;5153036;27;20104;-74
2023/01/02 11:23:35;;;;;;;8.43;2.47;;;;;;;;;;5152608;27;20027;-73
2023/01/02 11:26:02;;;;;;;12.65;2.33;;;;;;;;;;5152914;27;20030;-74
2023/01/02 11:28:30;;;;;;;8.02;2.90;;;;;;;;;;5152785;27;20023;-74
2023/01/02 11:31:10;;;;;;;11.20;2.60;;;;;;;;;;5152682;27;20624;-76
2023/01/02 11:33:36;;;;;;;8.40;2.60;;;;;;;;;;5152344;27;20097;-75
2023/01/02 11:36:15;;;;;;;7.00;2.20;;;;;;;;;;5152575;27;20045;-73
2023/01/02 11:38:44;;;;;;;7.15;2.30;;;;;;;;;;5152496;27;20200;-73
2023/01/02 11:44:27;;;;;;;9.98;2.40;;;;;;;;;;5152140;27;20053;-76
2023/01/02 11:46:54;;;;;;;9.10;2.55;;;;;;;;;;5152498;27;20414;-73
2023/01/02 11:49:24;;;;;;;6.00;2.20;;;;;;;;;;5152343;27;20027;-75
2023/01/02 11:52:01;;;;;;;6.68;2.10;;;;;;;;;;5152322;27;20035;-73
2023/01/02 11:54:43;;;;;;;9.15;2.05;;;;;;;;;;5152149;27;20029;-75
2023/01/02 11:57:44;;;;;;;6.10;1.80;;;;;;;;;;5153175;27;20378;-76
2023/01/02 12:00:13;;;;;;;;;;;;;;;;;;5147487;27;20070;-76
2023/01/02 12:02:51;;;;;;;4.60;1.60;;;;;;;;;;5155988;27;20472;-73
2023/01/02 12:05:42;;;;;;;5.82;1.80;;;;;;;;;;5152187;27;20111;-74
2023/01/02 12:08:55;;;;;;;6.10;1.60;;;;;;;;;;5152406;27;20378;-77
2023/01/02 12:11:42;;;;;;;7.38;1.70;;;;;;;;;;5146259;27;20047;-75
2023/01/02 12:14:20;;;;;;;4.15;1.67;;;;;;;;;;5152032;27;20054;-74
2023/01/02 12:17:07;;;;;;;6.40;1.40;;;;;;;;;;5151910;27;20062;-75
2023/01/02 12:19:52;;;;;;;4.35;1.70;;;;;;;;;;5151598;27;20409;-77
2023/01/02 12:23:16;;;;;;;4.45;1.60;;;;;;;;;;5150692;27;20030;-76
2023/01/02 12:25:57;;;;;;;3.92;1.30;;;;;;;;;;5092027;28;20140;-73
2023/01/02 12:28:55;;;;;;;5.60;2.13;;;;;;;;;;5092112;28;20038;-73
2023/01/02 12:31:59;;;;;;;4.70;2.17;;;;;;;;;;5151067;27;20038;-75
2023/01/02 12:35:10;;;;;;;5.30;2.10;;;;;;;;;;5156030;27;20030;-76
2023/01/02 12:37:53;;;;;;;4.78;1.50;;;;;;;;;;5131521;27;20096;-76
2023/01/02 12:40:37;;;;;;;8.07;1.90;;;;;;;;;;5156108;27;20111;-76
2023/01/02 12:43:18;;;;;;;4.20;1.30;;;;;;;;;;5155436;27;20045;-72
2023/01/02 12:46:07;;;;;;;4.97;1.40;;;;;;;;;;5156057;27;20083;-76
2023/01/02 12:49:10;;;;;;;3.45;1.20;;;;;;;;;;5155806;27;20014;-69
2023/01/02 12:51:50;;;;;;;2.83;1.42;;;;;;;;;;5155669;27;20398;-74
2023/01/02 12:54:21;;;;;;;5.20;1.40;;;;;;;;;;5155623;27;20158;-75
2023/01/02 12:56:52;;;;;;;5.20;1.58;;;;;;;;;;5155482;27;20037;-75
2023/01/02 12:59:46;;;;;;;7.90;1.48;;;;;;;;;;5155552;27;20034;-73
2023/01/02 13:02:45;;;;;;;2.88;1.20;;;;;;;;;;5155435;27;20027;-73
2023/01/02 13:05:39;;;;;;;5.63;1.45;;;;;;;;;;5155175;27;20041;-74
2023/01/02 13:08:15;;;;;;;5.35;1.20;;;;;;;;;;5155602;27;20019;-76
2023/01/02 13:10:41;;;;;;;5.13;1.55;;;;;;;;;;5155408;27;20087;-76
2023/01/02 13:13:09;;;;;;;4.53;2.00;;;;;;;;;;5155304;27;20031;-74
2023/01/02 13:15:39;;;;;;;5.38;1.85;;;;;;;;;;5155276;27;20481;-75
2023/01/02 13:18:21;;;;;;;4.05;1.55;;;;;;;;;;5155084;27;20023;-74
2023/01/02 13:21:08;;;;;;;3.30;1.40;;;;;;;;;;5155224;27;20633;-75
2023/01/02 13:23:45;;;;;;;5.45;1.48;;;;;;;;;;5154951;27;20034;-74
2023/01/02 13:26:23;;;;;;;4.72;1.30;;;;;;;;;;5155285;27;20022;-75
2023/01/02 13:28:54;;;;;;;3.45;1.30;;;;;;;;;;5155223;27;20027;-74
2023/01/02 13:31:20;;;;;;;3.60;1.27;;;;;;;;;;5155166;27;20035;-75
2023/01/02 13:33:48;;;;;;;4.25;1.10;;;;;;;;;;5154317;27;20023;-75
2023/01/02 13:36:25;;;;;;;3.25;1.20;;;;;;;;;;5154943;27;20029;-74
2023/01/02 13:39:11;;;;;;;2.90;1.00;;;;;;;;;;5154970;27;20075;-70
2023/01/02 13:44:37;;;;;;;6.90;1.13;;;;;;;;;;5154428;27;20083;-75
2023/01/02 13:47:12;;;;;;;3.42;1.20;;;;;;;;;;5154912;27;20023;-74
2023/01/02 13:49:37;;;;;;;2.72;1.30;;;;;;;;;;5154838;27;20022;-75
2023/01/02 13:52:03;;;;;;;3.15;1.23;;;;;;;;;;5154818;27;20044;-74
2023/01/02 13:54:35;;;;;;;2.42;1.10;;;;;;;;;;5154492;27;20018;-75
2023/01/02 13:57:36;;;;;;;2.70;1.30;;;;;;;;;;5154484;27;20490;-72
2023/01/02 14:00:04;;;;;;;;;;;;;;;;;;5090549;28;20122;-72
2023/01/02 14:02:30;;;;;;;2.47;1.10;;;;;;;;;;5141976;27;20384;-73
2023/01/02 14:04:55;;;;;;;2.00;0.98;;;;;;;;;;5154064;27;20034;-67
2023/01/02 14:07:23;;;;;;;2.00;1.00;;;;;;;;;;5154454;27;20083;-76
2023/01/02 14:10:01;;;;;;;2.28;0.98;;;;;;;;;;5154354;27;20018;-68
2023/01/02 14:12:27;;;;;;;3.28;1.20;;;;;;;;;;5154244;27;20037;-69
2023/01/02 14:14:53;;;;;;;3.05;0.90;;;;;;;;;;5154050;27;20023;-71
2023/01/02 14:17:27;;;;;;;1.73;0.82;;;;;;;;;;5154066;27;20023;-68
2023/01/02 14:20:17;;;;;;;3.20;1.00;;;;;;;;;;5153795;27;20033;-69
2023/01/02 14:22:49;;;;;;;2.67;1.10;;;;;;;;;;5152772;27;20027;-68
2023/01/02 14:25:15;;;;;;;2.72;1.00;;;;;;;;;;5153767;27;20335;-69
2023/01/02 14:27:49;;;;;;;3.00;0.77;;;;;;;;;;5154026;27;20026;-68
2023/01/02 14:30:22;;;;;;;2.30;0.80;;;;;;;;;;5153926;27;20023;-68
2023/01/02 14:32:50;;;;;;;2.90;0.90;;;;;;;;;;5153932;27;20023;-68
2023/01/02 14:35:15;;;;;;;2.53;0.90;;;;;;;;;;5153829;27;20109;-67
2023/01/02 14:37:47;;;;;;;2.30;0.80;;;;;;;;;;5161924;27;20061;-68
2023/01/02 14:40:21;;;;;;;2.78;1.40;;;;;;;;;;5158601;27;20611;-68
2023/01/02 14:46:03;;;;;;;3.22;1.55;;;;;;;;;;5153203;27;20038;-68
2023/01/02 14:49:11;;;;;;;5.75;1.10;;;;;;;;;;5153477;27;20061;-69
2023/01/02 14:51:45;;;;;;;2.42;1.23;;;;;;;;;;5089156;28;20036;-68
2023/01/02 14:54:22;;;;;;;2.13;0.90;;;;;;;;;;5088909;28;20043;-69
2023/01/02 14:56:52;;;;;;;1.40;0.73;;;;;;;;;;5129002;27;20559;-68
2023/01/02 14:59:26;;;;;;;1.55;0.73;;;;;;;;;;5153216;27;20047;-68
2023/01/02 15:01:58;;;;;;;1.35;0.80;;;;;;;;;;5153185;27;20501;-69
2023/01/02 15:04:37;;;;;;;3.85;1.17;;;;;;;;;;5152875;27;20025;-73
2023/01/02 15:07:05;;;;;;;2.45;1.20;;;;;;;;;;5153245;27;20109;-71
2023/01/02 15:09:35;;;;;;;2.22;1.10;;;;;;;;;;5152992;27;20023;-69
2023/01/02 15:14:59;;;;;;;1.77;0.80;;;;;;;;;;5152818;27;20064;-72